sensor_id;sensor_type;location;lat;lon;timestamp;pressure;altitude;pressure_sealevel;temperature;humidity
9672;BME280;4874;43.568;27.824;2023-02-12T20:55:04;100810.50;;;1.64;100.00
9672;BME280;4874;43.568;27.824;2023-02-12T20:57:31;100798.25;;;1.65;100.00
9672;BME280;4874;43.568;27.824;2023-02-12T21:00:00;100816.63;;;1.92;100.00
9672;BME280;4874;43.568;27.824;2023-02-12T21:02:27;100798.66;;;3.38;100.00
9672;BME280;4874;43.568;27.824;2023-02-12T21:04:54;100815.06;;;3.20;100.00
9672;BME280;4874;43.568;27.824;2023-02-12T21:07:23;100799.94;;;2.24;100.00
9672;BME280;4874;43.568;27.824;2023-02-12T21:09:50;100815.94;;;2.15;100.00
9672;BME280;4874;43.568;27.824;2023-02-12T21:12:16;100823.53;;;2.24;100.00
9672;BME280;4874;43.568;27.824;2023-02-12T21:14:44;100814.75;;;2.25;100.00
9672;BME280;4874;43.568;27.824;2023-02-12T21:17:11;100816.56;;;2.23;100.00
9672;BME280;4874;43.568;27.824;2023-02-12T21:19:38;100816.56;;;1.95;100.00
9672;BME280;4874;43.568;27.824;2023-02-12T21:22:04;100815.06;;;2.14;100.00
9672;BME280;4874;43.568;27.824;2023-02-12T21:24:31;100822.31;;;2.06;100.00
9672;BME280;4874;43.568;27.824;2023-02-12T21:26:59;100820.66;;;2.04;100.00
9672;BME280;4874;43.568;27.824;2023-02-12T21:29:25;100820.25;;;1.88;100.00
9672;BME280;4874;43.568;27.824;2023-02-12T21:31:54;100822.84;;;2.17;100.00
9672;BME280;4874;43.568;27.824;2023-02-12T21:34:21;100821.38;;;2.09;100.00
9672;BME280;4874;43.568;27.824;2023-02-12T21:36:51;100824.56;;;1.89;100.00
9672;BME280;4874;43.568;27.824;2023-02-12T21:39:21;100820.69;;;2.02;100.00
9672;BME280;4874;43.568;27.824;2023-02-12T21:41:57;100802.81;;;1.87;100.00
9672;BME280;4874;43.568;27.824;2023-02-12T21:44:26;100800.38;;;1.81;100.00
9672;BME280;4874;43.568;27.824;2023-02-12T21:46:53;100835.72;;;1.96;100.00
9672;BME280;4874;43.568;27.824;2023-02-12T21:49:20;100845.16;;;2.01;100.00
9672;BME280;4874;43.568;27.824;2023-02-12T21:51:52;100842.50;;;2.03;100.00
9672;BME280;4874;43.568;27.824;2023-02-12T21:54:20;100821.09;;;1.89;100.00
9672;BME280;4874;43.568;27.824;2023-02-12T21:56:49;100863.28;;;1.48;100.00
9672;BME280;4874;43.568;27.824;2023-02-12T21:59:17;100847.00;;;1.69;100.00
9672;BME280;4874;43.568;27.824;2023-02-12T22:01:46;100859.75;;;1.81;100.00
9672;BME280;4874;43.568;27.824;2023-02-12T22:04:14;100855.38;;;1.51;100.00
9672;BME280;4874;43.568;27.824;2023-02-12T22:06:46;100851.31;;;1.70;100.00
9672;BME280;4874;43.568;27.824;2023-02-12T22:09:16;100861.41;;;1.53;100.00
9672;BME280;4874;43.568;27.824;2023-02-12T22:11:43;100857.66;;;1.63;100.00
9672;BME280;4874;43.568;27.824;2023-02-12T22:14:14;100854.41;;;1.53;100.00
9672;BME280;4874;43.568;27.824;2023-02-12T22:16:42;100864.28;;;1.44;100.00
9672;BME280;4874;43.568;27.824;2023-02-12T22:19:09;100860.41;;;1.57;100.00
9672;BME280;4874;43.568;27.824;2023-02-12T22:21:38;100870.41;;;1.43;100.00
9672;BME280;4874;43.568;27.824;2023-02-12T22:24:07;100871.06;;;1.51;100.00
9672;BME280;4874;43.568;27.824;2023-02-12T22:26:35;100865.13;;;1.44;100.00
9672;BME280;4874;43.568;27.824;2023-02-12T22:29:05;100868.66;;;1.43;100.00
9672;BME280;4874;43.568;27.824;2023-02-12T22:31:34;100867.41;;;1.24;100.00
9672;BME280;4874;43.568;27.824;2023-02-12T22:34:05;100832.59;;;1.22;100.00
9672;BME280;4874;43.568;27.824;2023-02-12T22:36:36;100872.41;;;1.33;100.00
9672;BME280;4874;43.568;27.824;2023-02-12T22:39:03;100782.59;;;0.68;100.00
9672;BME280;4874;43.568;27.824;2023-02-12T22:41:31;100868.38;;;1.22;100.00
9672;BME280;4874;43.568;27.824;2023-02-12T22:43:59;100870.25;;;1.16;100.00
9672;BME280;4874;43.568;27.824;2023-02-12T22:46:27;100842.81;;;0.99;100.00
9672;BME280;4874;43.568;27.824;2023-02-12T22:48:54;100871.25;;;1.11;100.00
9672;BME280;4874;43.568;27.824;2023-02-12T22:51:26;100828.06;;;0.95;100.00
9672;BME280;4874;43.568;27.824;2023-02-12T22:53:54;100871.59;;;1.31;100.00
9672;BME280;4874;43.568;27.824;2023-02-12T22:56:21;100878.16;;;1.47;100.00
9672;BME280;4874;43.568;27.824;2023-02-12T22:58:48;100881.31;;;1.26;100.00
9672;BME280;4874;43.568;27.824;2023-02-12T23:01:18;100868.47;;;1.17;100.00
9672;BME280;4874;43.568;27.824;2023-02-12T23:03:46;100864.69;;;1.29;100.00
9672;BME280;4874;43.568;27.824;2023-02-12T23:06:15;100869.69;;;1.04;100.00
9672;BME280;4874;43.568;27.824;2023-02-12T23:08:43;100868.13;;;0.97;100.00
9672;BME280;4874;43.568;27.824;2023-02-12T23:11:10;100865.97;;;0.77;100.00
9672;BME280;4874;43.568;27.824;2023-02-12T23:13:37;100871.34;;;1.08;100.00
9672;BME280;4874;43.568;27.824;2023-02-12T23:16:04;100856.97;;;0.90;100.00
9672;BME280;4874;43.568;27.824;2023-02-12T23:18:31;100865.19;;;0.75;100.00
9672;BME280;4874;43.568;27.824;2023-02-12T23:20:58;100820.53;;;0.83;100.00
9672;BME280;4874;43.568;27.824;2023-02-12T23:23:26;100795.94;;;0.58;100.00
9672;BME280;4874;43.568;27.824;2023-02-12T23:25:54;100874.00;;;1.05;100.00
9672;BME280;4874;43.568;27.824;2023-02-12T23:28:23;100875.00;;;0.99;100.00
9672;BME280;4874;43.568;27.824;2023-02-12T23:30:50;100887.03;;;1.08;100.00
9672;BME280;4874;43.568;27.824;2023-02-12T23:33:18;100793.34;;;0.56;100.00
9672;BME280;4874;43.568;27.824;2023-02-12T23:35:46;100886.84;;;0.80;100.00
9672;BME280;4874;43.568;27.824;2023-02-12T23:38:13;100892.03;;;0.82;100.00
9672;BME280;4874;43.568;27.824;2023-02-12T23:40:41;100871.53;;;0.64;100.00
9672;BME280;4874;43.568;27.824;2023-02-12T23:43:08;100856.88;;;0.58;100.00
9672;BME280;4874;43.568;27.824;2023-02-12T23:45:35;100897.66;;;1.00;100.00
9672;BME280;4874;43.568;27.824;2023-02-12T23:48:02;100897.44;;;0.74;100.00
9672;BME280;4874;43.568;27.824;2023-02-12T23:50:29;100886.97;;;0.38;100.00
9672;BME280;4874;43.568;27.824;2023-02-12T23:52:57;100901.56;;;0.83;100.00
9672;BME280;4874;43.568;27.824;2023-02-12T23:55:23;100869.03;;;0.59;100.00
9672;BME280;4874;43.568;27.824;2023-02-12T23:57:50;100894.47;;;0.53;100.00
